Jekyll Island, GA (31527)

2:53 AM EDT on April 26, 2017 (GMT -0400)
12 B Pierson Avenue, Jekyll Island, Ga | | Change Station

Elev 11 ft 31.07 °N, 81.41 °W | Updated 9 seconds ago

Clear
Clear
65.0 °F
Feels Like 65.0 °F
N
0.0
Wind Variable Wind from ENE

Today
High -- | Low -- °F
--% Chance of Precip.
Yesterday
High -- | Low -- °F
Precip. -- in
Pressure 29.82 in
Visibility 6.0 miles
Clouds Clear
Dew Point 58 °F
Humidity 78%
Rainfall 0.00 in
Snow Depth Not available.
6:45 AM 8:01 PM
Waning Crescent, 0% visible
METAR KSSI 260553Z AUTO 25008KT 6SM HZ CLR 19/14 A2982 RMK AO2 SLP097 6//// T01940139 10256 20194 50008 PNO $
Pressure 29.82 in
Visibility 6.0 miles
Clouds Clear
Dew Point 58 °F
Humidity 78%
Rainfall 0.00 in
Snow Depth Not available.
6:45 AM 8:01 PM
Waning Crescent, 0% visible
METAR KSSI 260553Z AUTO 25008KT 6SM HZ CLR 19/14 A2982 RMK AO2 SLP097 6//// T01940139 10256 20194 50008 PNO $

Get Severe Weather Alerts

Thanks for signing up!

Be on the lookout for a verification email in your inbox.

You'll start receiving the daily forecast at 8 AM.

×

10-Day Weather Forecast

Almanac

Astronomy

Apr. 26, 2017 Rise Set
Actual Time
Civil Twilight
Nautical Twilight
Astronomical Twilight
Moon
Length of Visible Light
Length of Day
Tomorrow will be .
, % of the Moon is Illuminated

Today's Extremes

State Highs State Lows

Community

WunderPhotos

WunderBlog® & News

Nearby

Air Quality

  Air Quality AQ Index Pollutant
Not available.

Snow Depth

Station Depth Elevation

Earthquake Activity

City Distance Mag. Time & Date
Minimum magnitude displayed is 2.5.

Coastal Water Temperatures

Place Temperature

Stations

Nearby Weather Stations

Station Location Temp. Windchill Dew Point Humidity Wind Precip. Elev Updated Type
                   

Watches & Warnings

There are currently no watches in effect.